createdAt,value
2022-11-05T00:00:17.659Z,98083.53
2022-11-05T00:03:23.721Z,98082.72
2022-11-05T00:06:12.789Z,98087.91
2022-11-05T00:09:00.556Z,98093.97
2022-11-05T00:11:45.949Z,98089.63
2022-11-05T00:14:32.645Z,98092.97
2022-11-05T00:16:59.467Z,98096.50
2022-11-05T00:19:26.622Z,98098.16
2022-11-05T00:22:11.908Z,98093.66
2022-11-05T00:24:57.597Z,98090.19
2022-11-05T00:27:24.267Z,98084.84
2022-11-05T00:29:51.383Z,98097.06
2022-11-05T00:32:18.256Z,98090.88
2022-11-05T00:34:45.341Z,98094.13
2022-11-05T00:37:12.109Z,98094.13
2022-11-05T00:39:39.191Z,98101.13
2022-11-05T00:42:24.720Z,98096.91
2022-11-05T00:45:04.165Z,98098.63
2022-11-05T00:47:51.593Z,98104.75
2022-11-05T00:50:21.294Z,98115.97
2022-11-05T00:52:59.709Z,98118.59
2022-11-05T00:55:37.933Z,98132.47
2022-11-05T00:58:15.216Z,98135.03
2022-11-05T01:00:48.493Z,98137.66
2022-11-05T01:03:18.587Z,98132.31
2022-11-05T01:05:51.006Z,98137.53
2022-11-05T01:08:21.860Z,98137.53
2022-11-05T01:10:56.216Z,98140.16
2022-11-05T01:13:29.860Z,98137.44
2022-11-05T01:15:57.422Z,98146.19
2022-11-05T01:18:25.379Z,98147.06
2022-11-05T01:20:52.647Z,98148.81
2022-11-05T01:23:19.878Z,98154.91
2022-11-05T01:25:47.305Z,98150.47
2022-11-05T01:28:14.153Z,98144.38
2022-11-05T01:30:41.352Z,98146.81
2022-11-05T01:33:08.469Z,98151.25
2022-11-05T01:35:36.056Z,98144.09
2022-11-05T01:38:02.864Z,98152.88
2022-11-05T01:40:30.059Z,98155.53
2022-11-05T01:42:56.894Z,98148.47
2022-11-05T01:45:27.384Z,98148.53
2022-11-05T01:47:58.144Z,98158.16
2022-11-05T01:50:43.352Z,98161.56
2022-11-05T01:53:18.373Z,98170.25
2022-11-05T01:56:13.268Z,98178.06
2022-11-05T01:58:51.022Z,98180.84
2022-11-05T02:01:19.443Z,98189.59
2022-11-05T02:03:49.368Z,98183.34
2022-11-05T02:06:17.855Z,98185.91
2022-11-05T02:09:08.989Z,98182.31
2022-11-05T02:11:36.094Z,98185.75
2022-11-05T02:14:03.482Z,98188.38
2022-11-05T02:16:45.769Z,98191.16
2022-11-05T02:19:45.875Z,98189.31
2022-11-05T02:22:39.215Z,98184.88
2022-11-05T02:25:48.634Z,98205.13
2022-11-05T02:28:51.758Z,98210.38
2022-11-05T02:31:56.318Z,98210.09
2022-11-05T02:34:53.331Z,98209.47
2022-11-05T02:37:32.219Z,98216.50
2022-11-05T02:40:21.734Z,98215.66
2022-11-05T02:43:15.247Z,98211.22
2022-11-05T02:46:08.574Z,98208.53
2022-11-05T02:49:05.943Z,98197.06
2022-11-05T02:51:58.428Z,98199.63
2022-11-05T02:54:44.360Z,98203.31
2022-11-05T02:57:11.645Z,98207.69
2022-11-05T02:59:38.482Z,98219.94
2022-11-05T03:02:06.707Z,98216.50
2022-11-05T03:04:33.914Z,98228.81
2022-11-05T03:07:42.627Z,98231.31
2022-11-05T03:10:38.679Z,98228.00
2022-11-05T03:13:22.403Z,98231.59
2022-11-05T03:16:02.568Z,98241.31
2022-11-05T03:19:04.213Z,98245.66
2022-11-05T03:21:56.733Z,98250.06
2022-11-05T03:24:35.645Z,98248.28
2022-11-05T03:27:29.170Z,98257.81
2022-11-05T03:30:07.320Z,98263.84
2022-11-05T03:32:41.208Z,98255.94
2022-11-05T03:35:17.150Z,98273.47
2022-11-05T03:37:49.508Z,98276.25
2022-11-05T03:40:18.486Z,98270.22
2022-11-05T03:42:54.063Z,98276.25
2022-11-05T03:45:31.818Z,98285.75
2022-11-05T03:48:03.380Z,98283.94
2022-11-05T03:50:45.409Z,98299.66
2022-11-05T03:53:18.625Z,98292.72
2022-11-05T03:55:59.380Z,98300.63
2022-11-05T03:58:27.692Z,98297.19
2022-11-05T04:00:55.052Z,98305.47
2022-11-05T04:03:21.836Z,98291.31
2022-11-05T04:06:09.581Z,98296.63
2022-11-05T04:08:55.533Z,98309.81
2022-11-05T04:11:41.387Z,98307.25
2022-11-05T04:14:08.254Z,98302.75
2022-11-05T04:16:54.038Z,98303.69
2022-11-05T04:19:40.801Z,98303.97
2022-11-05T04:22:26.529Z,98311.81
2022-11-05T04:24:53.400Z,98322.28
2022-11-05T04:27:20.467Z,98321.25
2022-11-05T04:30:05.789Z,98324.28
2022-11-05T04:32:33.145Z,98329.34
2022-11-05T04:35:00.026Z,98326.78
2022-11-05T04:37:27.127Z,98329.19
2022-11-05T04:39:53.958Z,98341.13
2022-11-05T04:42:21.030Z,98345.44
2022-11-05T04:44:47.840Z,98338.31
2022-11-05T04:47:14.874Z,98343.38
2022-11-05T04:49:41.693Z,98350.25
2022-11-05T04:52:08.724Z,98357.25
2022-11-05T04:54:35.553Z,98349.28
2022-11-05T04:57:02.664Z,98358.88
2022-11-05T04:59:29.450Z,98355.31
2022-11-05T05:01:56.493Z,98357.94
2022-11-05T05:04:23.362Z,98362.50
2022-11-05T05:06:50.407Z,98354.53
2022-11-05T05:09:17.429Z,98356.41
2022-11-05T05:11:44.543Z,98356.41
2022-11-05T05:14:11.327Z,98353.84
2022-11-05T05:16:38.440Z,98351.25
2022-11-05T05:19:05.297Z,98349.47
2022-11-05T05:21:42.231Z,98347.69
2022-11-05T05:24:18.787Z,98345.94
2022-11-05T05:26:50.995Z,98356.47
2022-11-05T05:29:18.650Z,98368.69
2022-11-05T05:31:45.830Z,98359.88
2022-11-05T05:34:14.539Z,98360.66
2022-11-05T05:36:42.188Z,98369.50
2022-11-05T05:39:11.040Z,98372.91
2022-11-05T05:41:38.505Z,98367.66
2022-11-05T05:44:06.554Z,98371.06
2022-11-05T05:46:33.801Z,98378.13
2022-11-05T05:49:00.572Z,98379.81
2022-11-05T05:51:27.628Z,98377.16
2022-11-05T05:53:55.572Z,98379.75
2022-11-05T05:56:22.661Z,98384.22
2022-11-05T05:58:49.581Z,98391.16
2022-11-05T06:01:19.972Z,98391.16
2022-11-05T06:03:49.000Z,98392.00
2022-11-05T06:06:21.457Z,98399.84
2022-11-05T06:08:49.357Z,98406.75
2022-11-05T06:11:16.770Z,98412.81
2022-11-05T06:13:43.689Z,98411.75
2022-11-05T06:16:11.303Z,98420.44
2022-11-05T06:18:38.502Z,98416.13
2022-11-05T06:21:11.993Z,98425.84
2022-11-05T06:23:41.874Z,98436.34
2022-11-05T06:26:13.774Z,98432.84
2022-11-05T06:28:42.631Z,98436.34
2022-11-05T06:31:11.174Z,98449.44
2022-11-05T06:33:40.495Z,98452.16
2022-11-05T06:36:11.697Z,98456.50
2022-11-05T06:38:39.141Z,98468.84
2022-11-05T06:41:10.261Z,98466.22
2022-11-05T06:43:38.680Z,98467.91
2022-11-05T06:46:06.676Z,98474.00
2022-11-05T06:48:34.234Z,98483.66
2022-11-05T06:51:02.010Z,98480.94
2022-11-05T06:53:30.783Z,98496.63
2022-11-05T06:55:57.969Z,98498.31
2022-11-05T06:58:24.882Z,98499.13
2022-11-05T07:00:52.130Z,98503.38
2022-11-05T07:03:19.030Z,98504.47
2022-11-05T07:05:49.910Z,98514.06
2022-11-05T07:08:17.180Z,98514.00
2022-11-05T07:10:44.294Z,98521.78
2022-11-05T07:13:11.680Z,98516.31
2022-11-05T07:15:39.316Z,98522.50
2022-11-05T07:18:09.462Z,98527.75
2022-11-05T07:20:37.157Z,98532.97
2022-11-05T07:23:10.347Z,98539.09
2022-11-05T07:25:38.325Z,98535.59
2022-11-05T07:28:05.901Z,98543.31
2022-11-05T07:30:34.965Z,98565.25
2022-11-05T07:33:02.650Z,98557.41
2022-11-05T07:35:30.162Z,98572.25
2022-11-05T07:37:57.025Z,98571.31
2022-11-05T07:40:27.714Z,98573.88
2022-11-05T07:43:01.121Z,98577.47
2022-11-05T07:45:30.938Z,98577.31
2022-11-05T07:48:03.428Z,98583.22
2022-11-05T07:50:33.925Z,98591.00
2022-11-05T07:53:11.567Z,98594.34
2022-11-05T07:55:41.744Z,98594.28
2022-11-05T07:58:10.979Z,98599.50
2022-11-05T08:00:44.429Z,98601.94
2022-11-05T08:03:17.497Z,98610.69
2022-11-05T08:05:47.605Z,98608.84
2022-11-05T08:08:19.988Z,98606.06
2022-11-05T08:10:47.672Z,98615.69
2022-11-05T08:13:16.042Z,98614.84
2022-11-05T08:15:44.101Z,98622.78
2022-11-05T08:18:15.302Z,98627.03
2022-11-05T08:20:45.031Z,98627.88
2022-11-05T08:23:12.532Z,98627.81
2022-11-05T08:25:41.539Z,98624.25
2022-11-05T08:28:13.099Z,98626.84
2022-11-05T08:30:41.796Z,98632.09
2022-11-05T08:33:12.938Z,98625.81
2022-11-05T08:35:41.067Z,98624.00
2022-11-05T08:38:13.785Z,98629.09
2022-11-05T08:40:43.411Z,98633.41
2022-11-05T08:43:14.172Z,98638.59
2022-11-05T08:45:42.317Z,98640.22
2022-11-05T08:48:15.164Z,98642.75
2022-11-05T08:50:44.201Z,98637.84
2022-11-05T08:53:12.953Z,98640.53
2022-11-05T08:55:40.921Z,98647.50
2022-11-05T08:58:17.133Z,98641.25
2022-11-05T09:00:48.696Z,98639.19
2022-11-05T09:03:16.416Z,98648.91
2022-11-05T09:05:44.211Z,98647.31
2022-11-05T09:08:15.793Z,98650.78
2022-11-05T09:10:44.194Z,98648.09
2022-11-05T09:13:17.884Z,98650.66
2022-11-05T09:15:49.098Z,98656.72
2022-11-05T09:18:18.657Z,98652.44
2022-11-05T09:20:46.576Z,98654.25
2022-11-05T09:23:15.541Z,98657.78
2022-11-05T09:25:44.294Z,98659.34
2022-11-05T09:28:18.039Z,98664.63
2022-11-05T09:30:49.483Z,98657.53
2022-11-05T09:33:19.283Z,98664.50
2022-11-05T09:35:46.815Z,98666.22
2022-11-05T09:38:14.588Z,98672.28
2022-11-05T09:41:07.329Z,98663.22
2022-11-05T09:43:43.604Z,98662.28
2022-11-05T09:46:37.921Z,98665.56
2022-11-05T09:49:23.819Z,98668.09
2022-11-05T09:51:56.114Z,98665.38
2022-11-05T09:54:34.209Z,98667.72
2022-11-05T09:57:03.876Z,98669.28
2022-11-05T09:59:42.444Z,98682.34
2022-11-05T10:02:55.806Z,98686.56
2022-11-05T10:05:26.319Z,98690.03
2022-11-05T10:08:02.280Z,98687.06
2022-11-05T10:10:41.256Z,98682.34
2022-11-05T10:13:27.222Z,98680.41
2022-11-05T10:16:12.759Z,98682.47
2022-11-05T10:18:45.867Z,98680.47
2022-11-05T10:21:37.786Z,98686.69
2022-11-05T10:24:17.926Z,98689.09
2022-11-05T10:26:52.458Z,98697.19
2022-11-05T10:29:33.227Z,98692.63
2022-11-05T10:32:05.665Z,98690.59
2022-11-05T10:34:38.210Z,98690.59
2022-11-05T10:37:05.953Z,98693.09
2022-11-05T10:39:34.730Z,98695.88
2022-11-05T10:42:10.524Z,98692.75
2022-11-05T10:45:29.935Z,98701.84
2022-11-05T10:48:24.845Z,98709.78
2022-11-05T10:50:52.240Z,98702.88
2022-11-05T10:53:29.127Z,98702.00
2022-11-05T10:55:58.498Z,98701.03
2022-11-05T10:58:30.405Z,98699.97
2022-11-05T11:00:57.520Z,98711.03
2022-11-05T11:03:46.710Z,98715.53
2022-11-05T11:06:48.166Z,98723.09
2022-11-05T11:09:37.156Z,98716.09
2022-11-05T11:12:13.292Z,98721.94
2022-11-05T11:14:40.622Z,98725.13
2022-11-05T11:17:43.158Z,98727.69
2022-11-05T11:20:32.922Z,98729.28
2022-11-05T11:23:15.783Z,98730.91
2022-11-05T11:26:02.588Z,98735.06
2022-11-05T11:28:39.366Z,98740.09
2022-11-05T11:31:13.708Z,98741.75
2022-11-05T11:33:46.960Z,98732.16
2022-11-05T11:36:19.897Z,98728.53
2022-11-05T11:38:48.129Z,98729.22
2022-11-05T11:41:34.371Z,98731.94
2022-11-05T11:47:23.153Z,98736.44
2022-11-05T11:49:57.101Z,98734.03
2022-11-05T11:52:33.575Z,98739.88
2022-11-05T11:55:12.736Z,98735.44
2022-11-05T11:57:52.610Z,98734.34
2022-11-05T12:00:24.169Z,98730.69
2022-11-05T12:03:09.828Z,98731.78
2022-11-05T12:06:04.555Z,98728.19
2022-11-05T12:09:06.517Z,98739.25
2022-11-05T12:12:00.628Z,98735.97
2022-11-05T12:15:01.542Z,98737.44
2022-11-05T12:17:54.532Z,98735.34
2022-11-05T12:20:34.091Z,98728.75
2022-11-05T12:23:49.808Z,98735.38
2022-11-05T12:26:24.943Z,98729.84
2022-11-05T12:29:37.017Z,98734.13
2022-11-05T12:32:22.378Z,98739.34
2022-11-05T12:35:13.753Z,98741.19
2022-11-05T12:38:13.102Z,98746.34
2022-11-05T12:41:38.825Z,98743.22
2022-11-05T12:44:11.723Z,98753.34
2022-11-05T12:46:49.571Z,98750.63
2022-11-05T12:49:55.121Z,98760.13
2022-11-05T12:53:01.696Z,98759.41
2022-11-05T12:55:38.232Z,98756.84
2022-11-05T12:58:34.901Z,98764.78
2022-11-05T13:01:09.772Z,98761.38
2022-11-05T13:04:11.292Z,98757.84
2022-11-05T13:06:44.008Z,98768.28
2022-11-05T13:09:29.886Z,98769.22
2022-11-05T13:12:21.812Z,98776.53
2022-11-05T13:14:58.076Z,98778.38
2022-11-05T13:17:51.388Z,98771.38
2022-11-05T13:20:30.973Z,98780.16
2022-11-05T13:23:10.870Z,98783.66
2022-11-05T13:25:49.644Z,98787.25
2022-11-05T13:28:41.211Z,98788.25
2022-11-05T13:31:17.858Z,98793.31
2022-11-05T13:33:49.729Z,98786.22
2022-11-05T13:37:06.885Z,98785.38
2022-11-05T13:40:01.449Z,98791.66
2022-11-05T13:43:00.452Z,98795.34
2022-11-05T13:45:55.459Z,98801.53
2022-11-05T13:48:52.055Z,98797.97
2022-11-05T13:51:48.200Z,98791.84
2022-11-05T13:55:11.534Z,98793.69
2022-11-05T13:58:06.210Z,98796.25
2022-11-05T14:00:59.768Z,98786.31
2022-11-05T14:03:27.095Z,98783.84
2022-11-05T14:06:08.258Z,98775.16
2022-11-05T14:08:46.479Z,98784.06
2022-11-05T14:11:26.328Z,98790.19
2022-11-05T14:14:07.036Z,98789.41
2022-11-05T14:17:07.140Z,98786.06
2022-11-05T14:19:51.403Z,98794.00
2022-11-05T14:22:41.493Z,98788.00
2022-11-05T14:25:17.753Z,98782.78
2022-11-05T14:27:49.308Z,98782.88
2022-11-05T14:30:41.495Z,98794.22
2022-11-05T14:33:25.697Z,98789.28
2022-11-05T14:36:33.662Z,98798.22
2022-11-05T14:39:28.199Z,98802.50
2022-11-05T14:42:28.761Z,98801.78
2022-11-05T14:45:18.916Z,98804.44
2022-11-05T14:48:00.104Z,98806.31
2022-11-05T14:50:40.569Z,98813.47
2022-11-05T14:53:36.306Z,98810.88
2022-11-05T14:56:08.807Z,98819.97
2022-11-05T14:58:41.795Z,98819.09
2022-11-05T15:01:15.086Z,98814.81
2022-11-05T15:03:46.468Z,98824.44
2022-11-05T15:06:27.103Z,98826.31
2022-11-05T15:09:26.739Z,98833.47
2022-11-05T15:11:56.858Z,98833.47
2022-11-05T15:14:42.332Z,98849.53
2022-11-05T15:17:30.158Z,98849.53
2022-11-05T15:20:09.540Z,98851.41
2022-11-05T15:22:49.024Z,98842.75
2022-11-05T15:25:53.718Z,98841.91
2022-11-05T15:28:33.277Z,98850.69
2022-11-05T15:31:12.740Z,98851.66
2022-11-05T15:33:42.204Z,98857.91
2022-11-05T15:36:31.322Z,98852.63
2022-11-05T15:39:28.026Z,98862.38
2022-11-05T15:41:46.938Z,98854.56
2022-11-05T15:44:38.444Z,98852.00
2022-11-05T15:47:25.929Z,98855.63
2022-11-05T15:50:14.084Z,98861.91
2022-11-05T15:52:51.035Z,98864.56
2022-11-05T15:55:24.854Z,98869.97
2022-11-05T15:58:03.184Z,98874.53
2022-11-05T16:00:35.400Z,98872.81
2022-11-05T16:03:18.903Z,98879.09
2022-11-05T16:05:48.885Z,98877.50
2022-11-05T16:08:22.686Z,98881.16
2022-11-05T16:10:55.715Z,98884.78
2022-11-05T16:13:35.660Z,98885.84
2022-11-05T16:16:25.910Z,98889.47
2022-11-05T16:18:52.850Z,98887.84
2022-11-05T16:21:23.289Z,98889.75
2022-11-05T16:23:49.993Z,98884.59
2022-11-05T16:27:01.816Z,98886.47
2022-11-05T16:29:46.285Z,98898.00
2022-11-05T16:32:28.368Z,98899.91
2022-11-05T16:35:02.588Z,98900.75
2022-11-05T16:37:46.430Z,98905.19
2022-11-05T16:40:25.825Z,98911.38
2022-11-05T16:42:55.561Z,98913.16
2022-11-05T16:45:25.038Z,98907.09
2022-11-05T16:47:55.050Z,98913.28
2022-11-05T16:50:32.399Z,98920.44
2022-11-05T16:52:59.239Z,98922.22
2022-11-05T16:55:26.433Z,98919.69
2022-11-05T16:57:55.845Z,98920.78
2022-11-05T17:00:24.644Z,98917.38
2022-11-05T17:02:52.997Z,98924.50
2022-11-05T17:05:30.846Z,98920.28
2022-11-05T17:07:58.299Z,98924.78
2022-11-05T17:10:26.441Z,98930.97
2022-11-05T17:12:53.904Z,98938.75
2022-11-05T17:15:26.005Z,98940.72
2022-11-05T17:17:54.786Z,98940.84
2022-11-05T17:20:41.955Z,98933.16
2022-11-05T17:23:12.395Z,98934.09
2022-11-05T17:25:43.242Z,98940.22
2022-11-05T17:28:11.410Z,98935.00
2022-11-05T17:30:41.433Z,98941.19
2022-11-05T17:33:11.306Z,98944.00
2022-11-05T17:35:41.192Z,98950.13
2022-11-05T17:38:10.117Z,98952.88
2022-11-05T17:40:38.538Z,98947.66
2022-11-05T17:43:06.251Z,98948.59
2022-11-05T17:45:33.844Z,98955.63
2022-11-05T17:48:03.301Z,98954.88
2022-11-05T17:50:30.633Z,98955.84
2022-11-05T17:52:57.436Z,98965.50
2022-11-05T17:55:25.753Z,98968.31
2022-11-05T17:57:53.138Z,98974.63
2022-11-05T18:00:24.050Z,98982.72
2022-11-05T18:02:53.708Z,98988.88
2022-11-05T18:05:22.791Z,98987.19
2022-11-05T18:07:50.232Z,98994.25
2022-11-05T18:10:17.755Z,98995.09
2022-11-05T18:12:45.826Z,98989.00
2022-11-05T18:15:14.360Z,98996.09
2022-11-05T18:17:42.701Z,99003.13
2022-11-05T18:20:17.436Z,98999.75
2022-11-05T18:22:50.626Z,99012.16
2022-11-05T18:25:18.723Z,99011.34
2022-11-05T18:27:45.701Z,99022.81
2022-11-05T18:30:15.608Z,99014.09
2022-11-05T18:32:44.646Z,99016.00
2022-11-05T18:35:14.561Z,99012.47
2022-11-05T18:37:41.783Z,99018.63
2022-11-05T18:40:10.620Z,99026.53
2022-11-05T18:42:37.538Z,99031.00
2022-11-05T18:45:06.954Z,99025.78
2022-11-05T18:47:34.451Z,99025.84
2022-11-05T18:50:02.426Z,99028.66
2022-11-05T18:52:31.700Z,99030.59
2022-11-05T18:54:59.889Z,99030.59
2022-11-05T18:57:27.740Z,99030.66
2022-11-05T18:59:54.923Z,99032.41
2022-11-05T19:02:23.284Z,99029.06
2022-11-05T19:05:14.449Z,99041.41
2022-11-05T19:07:39.377Z,99040.66
2022-11-05T19:10:07.670Z,99047.81
2022-11-05T19:12:34.720Z,99046.13
2022-11-05T19:15:03.018Z,99051.50
2022-11-05T19:17:33.399Z,99051.50
2022-11-05T19:20:01.447Z,99052.41
2022-11-05T19:22:28.803Z,99053.28
2022-11-05T19:24:55.901Z,99057.66
2022-11-05T19:27:23.371Z,99068.31
2022-11-05T19:29:50.527Z,99070.38
2022-11-05T19:32:17.812Z,99066.81
2022-11-05T19:34:44.883Z,99066.00
2022-11-05T19:37:12.488Z,99070.28
2022-11-05T19:39:41.157Z,99063.38
2022-11-05T19:42:08.263Z,99069.50
2022-11-05T19:44:35.638Z,99063.53
2022-11-05T19:47:02.777Z,99072.41
2022-11-05T19:49:29.911Z,99071.66
2022-11-05T19:51:57.033Z,99075.22
2022-11-05T19:54:24.053Z,99081.53
2022-11-05T19:56:51.996Z,99080.66
2022-11-05T19:59:19.408Z,99076.41
2022-11-05T20:01:46.729Z,99071.19
2022-11-05T20:04:14.055Z,99079.13
2022-11-05T20:06:41.748Z,99075.66
2022-11-05T20:09:22.675Z,99073.97
2022-11-05T20:11:56.591Z,99072.50
2022-11-05T20:14:25.900Z,99077.81
2022-11-05T20:16:53.684Z,99076.03
2022-11-05T20:19:22.665Z,99076.03
2022-11-05T20:21:50.159Z,99075.19
2022-11-05T20:24:24.863Z,99077.81
2022-11-05T20:26:57.137Z,99080.50
2022-11-05T20:29:30.635Z,99087.69
2022-11-05T20:32:02.976Z,99086.03
2022-11-05T20:34:32.477Z,99081.66
2022-11-05T20:36:59.747Z,99094.88
2022-11-05T20:39:27.386Z,99088.69
2022-11-05T20:41:54.248Z,99079.03
2022-11-05T20:44:21.628Z,99085.28
2022-11-05T20:46:48.702Z,99080.94
2022-11-05T20:49:17.227Z,99080.19
2022-11-05T20:51:45.929Z,99083.75
2022-11-05T20:54:13.129Z,99086.44
2022-11-05T20:56:40.470Z,99081.28
2022-11-05T20:59:07.959Z,99081.44
2022-11-05T21:01:35.529Z,99091.09
2022-11-05T21:04:04.458Z,99092.81
2022-11-05T21:06:34.859Z,99082.50
2022-11-05T21:09:04.283Z,99092.94
2022-11-05T21:11:54.358Z,99096.50
2022-11-05T21:14:22.130Z,99091.28
2022-11-05T21:16:49.059Z,99094.81
2022-11-05T21:19:16.456Z,99086.88
2022-11-05T21:21:43.400Z,99099.06
2022-11-05T21:24:10.697Z,99090.31
2022-11-05T21:26:37.494Z,99099.94
2022-11-05T21:29:04.740Z,99097.31
2022-11-05T21:31:31.778Z,99090.41
2022-11-05T21:33:59.050Z,99085.25
2022-11-05T21:36:25.894Z,99091.47
2022-11-05T21:38:53.419Z,99092.41
2022-11-05T21:41:21.825Z,99097.75
2022-11-05T21:43:49.927Z,99091.63
2022-11-05T21:46:17.725Z,99099.59
2022-11-05T21:48:45.154Z,99099.66
2022-11-05T21:51:31.504Z,99091.94
2022-11-05T21:54:21.533Z,99086.88
2022-11-05T21:57:10.988Z,99094.16
2022-11-05T21:59:55.690Z,99088.22
2022-11-05T22:02:29.436Z,99090.91
2022-11-05T22:05:00.170Z,99095.44
2022-11-05T22:07:32.795Z,99088.31
2022-11-05T22:10:01.857Z,99090.81
2022-11-05T22:12:33.142Z,99094.47
2022-11-05T22:15:01.871Z,99094.41
2022-11-05T22:17:33.609Z,99086.81
2022-11-05T22:20:00.985Z,99089.69
2022-11-05T22:22:28.089Z,99083.63
2022-11-05T22:24:55.424Z,99085.38
2022-11-05T22:27:22.621Z,99082.75
2022-11-05T22:29:50.270Z,99088.94
2022-11-05T22:32:18.874Z,99086.38
2022-11-05T22:34:48.791Z,99086.47
2022-11-05T22:37:15.697Z,99095.16
2022-11-05T22:39:42.774Z,99094.13
2022-11-05T22:42:10.129Z,99088.06
2022-11-05T22:44:37.530Z,99094.41
2022-11-05T22:47:05.576Z,99094.63
2022-11-05T22:49:33.537Z,99094.75
2022-11-05T22:52:00.452Z,99092.91
2022-11-05T22:54:27.727Z,99091.97
2022-11-05T22:56:54.647Z,99103.25
2022-11-05T22:59:22.071Z,99099.81
2022-11-05T23:01:49.550Z,99106.97
2022-11-05T23:04:17.015Z,99107.06
2022-11-05T23:07:02.934Z,99107.25
2022-11-05T23:09:53.375Z,99112.59
2022-11-05T23:12:27.708Z,99109.13
2022-11-05T23:14:57.685Z,99104.63
2022-11-05T23:17:44.373Z,99106.44
2022-11-05T23:20:42.252Z,99117.03
2022-11-05T23:23:31.827Z,99118.03
2022-11-05T23:26:00.263Z,99112.16
2022-11-05T23:28:27.294Z,99113.13
2022-11-05T23:31:12.913Z,99107.19
2022-11-05T23:33:39.676Z,99118.56
2022-11-05T23:36:25.772Z,99113.34
2022-11-05T23:38:52.576Z,99113.41
2022-11-05T23:41:38.127Z,99115.13
2022-11-05T23:44:23.508Z,99109.97
2022-11-05T23:47:09.509Z,99109.09
2022-11-05T23:49:36.371Z,99108.16
2022-11-05T23:52:03.625Z,99110.84
2022-11-05T23:54:30.442Z,99110.09
2022-11-05T23:56:57.615Z,99117.25
2022-11-05T23:59:24.478Z,99103.31
